Flight Track Log - Related Links

Times and Time Zones

All times are in EDT time to prevent confusion due to time zone crossing. See the SLI2119 flight status page for this flight to view local times or setup timezone preferences in your user account.

Time Position Orientation Groundspeed Altitude Reporting Facility
EDT Latitude Longitude Course Direction KTS MPH feet Rate Location/Type
Fri 08:17:00 PM 24.2154 -109.7876 75° East  Level Estimated
Fri 08:18:00 PM 24.2272 -109.7397 75° East  Level Estimated
Fri 08:19:00 PM 24.2390 -109.6917 75° East  Level Estimated
Fri 08:20:00 PM 24.2507 -109.6437 75° East  Level Estimated
Fri 08:21:00 PM 24.2625 -109.5957 75° East  Level Estimated
Fri 08:22:00 PM 24.2742 -109.5477 75° East  Level Estimated
Fri 08:23:00 PM 24.2859 -109.4997 75° East  Level Estimated
Fri 08:24:00 PM 24.2976 -109.4517 75° East  Level Estimated
Fri 08:25:00 PM 24.3093 -109.4037 75° East  Level Estimated
Fri 08:26:00 PM 24.3210 -109.3557 75° East  Level Estimated
Fri 08:27:00 PM 24.3326 -109.3076 75° East  Level Estimated
Fri 08:28:00 PM 24.3443 -109.2596 75° East  Level Estimated
Fri 08:29:00 PM 24.3559 -109.2115 75° East  Level Estimated
Fri 08:30:00 PM 24.3675 -109.1635 75° East  Level Estimated
Fri 08:31:00 PM 24.3791 -109.1154 75° East  Level Estimated
Fri 08:32:00 PM 24.3907 -109.0673 75° East  Level Estimated
Fri 08:33:00 PM 24.4023 -109.0192 75° East  Level Estimated
Fri 08:34:00 PM 24.4138 -108.9711 75° East  Level Estimated
Fri 08:35:00 PM 24.4254 -108.9230 75° East  Level Estimated
Fri 08:36:00 PM 24.4369 -108.8749 75° East  Level Estimated
Fri 08:37:00 PM 24.4484 -108.8268 75° East  Level Estimated
Fri 08:38:00 PM 24.4599 -108.7786 75° East  Level Estimated
Fri 08:39:00 PM 24.4714 -108.7305 75° East  Level Estimated
Fri 08:40:00 PM 24.4828 -108.6823 75° East  Level Estimated
Fri 08:41:00 PM 24.4943 -108.6341 75° East  Level Estimated
Fri 08:42:00 PM 24.5057 -108.5860 75° East  Level Estimated
Fri 08:43:00 PM 24.5171 -108.5378 75° East  Level Estimated
Fri 08:44:00 PM 24.5285 -108.4896 75° East  Level Estimated
Fri 08:45:00 PM 24.5399 -108.4414 75° East  Level Estimated
Fri 08:46:00 PM 24.5513 -108.3932 75° East  Level Estimated
Fri 08:47:00 PM 24.5626 -108.3450 75° East  Level Estimated
Fri 08:48:00 PM 24.5739 -108.2968 75° East  Level Estimated
Fri 08:49:00 PM 24.5853 -108.2485 76° East  Level Estimated
Fri 08:50:00 PM 24.5966 -108.2003 76° East  Level Estimated
Fri 08:51:00 PM 24.6079 -108.1520 76° East  Level Estimated
Fri 08:52:00 PM 24.6192 -108.1038 76° East  Level Estimated
Fri 08:53:00 PM 24.6304 -108.0555 76° East  Level Estimated
Fri 08:54:00 PM 24.6417 -108.0072 76° East  Level Estimated
Fri 08:55:00 PM 24.6529 -107.9589 76° East  Level Estimated
Fri 08:56:00 PM 24.6641 -107.9107 76° East  Level Estimated
Fri 08:57:00 PM 24.6753 -107.8624 76° East  Level Estimated
Fri 08:58:00 PM 24.6865 -107.8140 76° East  Level Estimated
Fri 08:59:00 PM 24.6977 -107.7657 76° East  Level Estimated
Fri 09:00:00 PM 24.7088 -107.7174 76° East  Level Estimated
Fri 09:01:00 PM 24.7199 -107.6691 76° East  Level Estimated
Fri 09:02:00 PM 24.7311 -107.6207 76° East  Level Estimated
Fri 09:03:00 PM 24.7422 -107.5723 76° East  Level Estimated
Fri 09:04:00 PM 24.7533 -107.5240 76° East  Level Estimated
Fri 09:05:00 PM 24.7643 -107.4756 76° East  Level Estimated
Fri 09:06:00 PM 24.7645 -107.4747 76° East  Level Estimated
Fri 09:07:00 PM 24.7645 -107.4747 138° Southeast  Level Estimated
Fri 09:08:00 PM 24.7645 -107.4747 138° Southeast  Level Estimated
Fri 09:09:00 PM 24.7645 -107.4747 138° Southeast  Level Estimated
Fri 09:10:00 PM 24.7645 -107.4747 138° Southeast  Level Estimated
Fri 09:11:00 PM 24.7645 -107.4747 138° Southeast  Level Estimated
Fri 09:12:00 PM 24.7645 -107.4747 138° Southeast  Level Estimated
Fri 09:13:00 PM 24.7645 -107.4747 138° Southeast  Level Estimated
Fri 09:14:00 PM 24.7645 -107.4747 138° Southeast  Level Estimated
Fri 09:15:00 PM 24.7645 -107.4747 138° Southeast  Level Estimated
Fri 09:16:00 PM 24.7645 -107.4747 138° Southeast  Level Estimated
Fri 09:17:00 PM 24.7645 -107.4747 138° Southeast  Level Estimated
Fri 09:18:00 PM 24.7645 -107.4747 138° Southeast  Level Estimated
Fri 09:19:00 PM 24.7645 -107.4747 138° Southeast  Level Estimated
Fri 09:20:00 PM 24.7645 -107.4747 138° Southeast  Level Estimated
Fri 09:21:00 PM 24.7645 -107.4747 138° Southeast  Level Estimated

Login

Don't have an account? Register now (free) for customized features, flight alerts, and more!